createdAt,value
2019-03-27T00:07:30.831Z,7.43
2019-03-27T00:10:00.945Z,7.38
2019-03-27T00:12:30.946Z,7.55
2019-03-27T00:15:12.120Z,7.57
2019-03-27T00:17:33.302Z,7.65
2019-03-27T00:20:03.326Z,7.62
2019-03-27T00:22:33.791Z,7.68
2019-03-27T00:27:40.589Z,7.76
2019-03-27T00:30:31.314Z,7.75
2019-03-27T00:33:01.645Z,7.72
2019-03-27T00:35:31.631Z,7.81
2019-03-27T00:38:01.592Z,7.76
2019-03-27T00:40:31.746Z,7.72
2019-03-27T00:43:02.203Z,7.67
2019-03-27T00:45:33.620Z,7.66
2019-03-27T00:48:26.026Z,7.53
2019-03-27T00:50:56.073Z,7.57
2019-03-27T00:53:25.974Z,7.45
2019-03-27T00:55:55.989Z,7.47
2019-03-27T00:58:25.976Z,7.56
2019-03-27T01:03:56.987Z,7.57
2019-03-27T01:06:29.007Z,7.47
2019-03-27T01:08:59.819Z,7.39
2019-03-27T01:11:30.579Z,7.40
2019-03-27T01:14:01.025Z,7.34
2019-03-27T01:16:31.697Z,7.32
2019-03-27T01:19:02.986Z,7.35
2019-03-27T01:21:35.255Z,7.34
2019-03-27T01:24:05.846Z,7.27
2019-03-27T01:26:36.286Z,7.28
2019-03-27T01:29:06.245Z,7.32
2019-03-27T01:31:36.950Z,7.31
2019-03-27T01:34:07.488Z,7.37
2019-03-27T01:36:38.283Z,7.46
2019-03-27T01:39:29.344Z,7.46
2019-03-27T01:41:59.168Z,7.45
2019-03-27T01:44:29.391Z,7.37
2019-03-27T01:46:59.341Z,7.40
2019-03-27T01:49:29.117Z,7.44
2019-03-27T01:51:58.952Z,7.41
2019-03-27T01:54:28.759Z,7.40
2019-03-27T01:56:58.613Z,7.41
2019-03-27T01:59:28.418Z,7.36
2019-03-27T02:01:58.275Z,7.43
2019-03-27T02:04:28.085Z,7.36
2019-03-27T02:06:58.774Z,7.30
2019-03-27T02:09:28.715Z,7.25
2019-03-27T02:11:58.613Z,7.18
2019-03-27T02:14:28.489Z,7.16
2019-03-27T02:16:58.498Z,7.20
2019-03-27T02:19:28.419Z,7.24
2019-03-27T02:21:58.271Z,7.25
2019-03-27T02:24:28.123Z,7.27
2019-03-27T02:26:57.922Z,7.37
2019-03-27T02:29:27.748Z,7.35
2019-03-27T02:31:57.526Z,7.29
2019-03-27T02:34:27.417Z,7.29
2019-03-27T02:36:57.592Z,7.22
2019-03-27T02:39:27.425Z,7.10
2019-03-27T02:41:57.186Z,7.11
2019-03-27T02:44:27.035Z,7.08
2019-03-27T02:46:56.907Z,7.00
2019-03-27T02:49:26.785Z,6.91
2019-03-27T02:51:56.639Z,6.62
2019-03-27T02:54:26.537Z,6.55
2019-03-27T02:56:56.820Z,6.58
2019-03-27T02:59:26.992Z,6.66
2019-03-27T03:01:56.724Z,6.79
2019-03-27T03:04:26.518Z,6.87
2019-03-27T03:06:56.258Z,6.90
2019-03-27T03:09:26.358Z,6.90
2019-03-27T03:11:56.108Z,6.72
2019-03-27T03:14:25.913Z,6.65
2019-03-27T03:16:55.634Z,6.39
2019-03-27T03:19:25.427Z,6.21
2019-03-27T03:21:55.163Z,5.97
2019-03-27T03:24:25.669Z,6.02
2019-03-27T03:26:55.406Z,5.93
2019-03-27T03:29:25.201Z,5.94
2019-03-27T03:31:54.942Z,6.00
2019-03-27T03:34:24.784Z,5.93
2019-03-27T03:36:54.532Z,5.90
2019-03-27T03:39:24.342Z,5.75
2019-03-27T03:41:54.080Z,5.82
2019-03-27T03:44:23.821Z,5.73
2019-03-27T03:47:00.121Z,5.90
2019-03-27T03:49:25.379Z,6.04
2019-03-27T03:51:55.185Z,6.25
2019-03-27T03:57:59.966Z,6.25
2019-03-27T04:01:08.881Z,6.27
2019-03-27T04:07:06.501Z,6.30
2019-03-27T04:09:36.523Z,6.10
2019-03-27T04:12:06.306Z,5.77
2019-03-27T04:14:36.050Z,5.65
2019-03-27T04:17:16.890Z,5.79
2019-03-27T04:19:37.299Z,5.81
2019-03-27T04:22:07.107Z,5.68
2019-03-27T04:24:36.834Z,5.61
2019-03-27T04:27:06.648Z,5.24
2019-03-27T04:29:36.389Z,5.21
2019-03-27T04:32:06.125Z,5.24
2019-03-27T04:34:35.971Z,5.49
2019-03-27T04:37:05.708Z,5.53
2019-03-27T04:39:35.491Z,5.46
2019-03-27T04:42:05.228Z,5.56
2019-03-27T04:44:35.291Z,5.50
2019-03-27T04:47:05.041Z,5.41
2019-03-27T04:49:34.814Z,5.33
2019-03-27T04:52:04.556Z,5.20
2019-03-27T04:54:34.380Z,5.10
2019-03-27T04:57:04.119Z,5.03
2019-03-27T04:59:35.156Z,5.12
2019-03-27T05:02:06.632Z,4.91
2019-03-27T05:07:13.798Z,4.99
2019-03-27T05:09:44.512Z,5.01
2019-03-27T05:12:14.268Z,4.65
2019-03-27T05:14:44.085Z,4.79
2019-03-27T05:17:13.830Z,4.80
2019-03-27T05:19:43.927Z,4.89
2019-03-27T05:22:14.040Z,4.72
2019-03-27T05:24:44.136Z,4.73
2019-03-27T05:27:14.208Z,4.84
2019-03-27T05:29:44.296Z,5.01
2019-03-27T05:32:14.067Z,4.86
2019-03-27T05:34:44.007Z,4.96
2019-03-27T05:37:13.751Z,5.00
2019-03-27T05:39:43.563Z,5.11
2019-03-27T05:42:13.338Z,5.31
2019-03-27T05:44:43.173Z,5.46
2019-03-27T05:47:13.191Z,5.42
2019-03-27T05:49:42.992Z,5.46
2019-03-27T05:52:12.744Z,5.44
2019-03-27T05:57:18.022Z,4.96
2019-03-27T06:00:06.735Z,4.89
2019-03-27T06:02:36.473Z,4.92
2019-03-27T06:05:45.439Z,4.85
2019-03-27T06:08:15.176Z,4.89
2019-03-27T06:10:44.974Z,5.15
2019-03-27T06:13:14.722Z,5.33
2019-03-27T06:18:36.838Z,5.25
2019-03-27T06:21:06.692Z,5.12
2019-03-27T06:23:36.510Z,5.04
2019-03-27T06:26:06.373Z,4.87
2019-03-27T06:28:36.135Z,5.04
2019-03-27T06:31:08.481Z,5.15
2019-03-27T06:33:38.455Z,5.23
2019-03-27T06:36:08.707Z,5.25
2019-03-27T06:38:38.503Z,5.36
2019-03-27T06:41:08.371Z,5.17
2019-03-27T06:43:38.153Z,5.05
2019-03-27T06:46:08.019Z,4.96
2019-03-27T06:48:37.888Z,4.99
2019-03-27T06:51:07.831Z,5.21
2019-03-27T06:53:37.726Z,5.46
2019-03-27T06:56:07.515Z,5.58
2019-03-27T06:58:37.394Z,5.60
2019-03-27T07:01:07.366Z,5.65
2019-03-27T07:03:37.546Z,5.77
2019-03-27T07:06:07.448Z,5.40
2019-03-27T07:08:37.229Z,5.20
2019-03-27T07:11:09.555Z,4.94
2019-03-27T07:25:27.497Z,5.04
2019-03-27T07:27:57.383Z,5.04
2019-03-27T07:30:27.622Z,4.98
2019-03-27T07:32:57.595Z,4.98
2019-03-27T07:35:27.728Z,5.07
2019-03-27T07:37:57.646Z,4.97
2019-03-27T07:40:28.046Z,5.09
2019-03-27T07:42:57.807Z,5.17
2019-03-27T07:45:27.635Z,5.29
2019-03-27T07:47:57.715Z,5.30
2019-03-27T07:50:27.520Z,5.34
2019-03-27T07:52:57.280Z,5.24
2019-03-27T07:55:27.090Z,5.13
2019-03-27T07:57:57.019Z,5.11
2019-03-27T08:00:26.919Z,5.15
2019-03-27T08:02:57.284Z,5.28
2019-03-27T08:07:55.471Z,5.25
2019-03-27T08:10:25.721Z,5.43
2019-03-27T08:12:55.438Z,5.39
2019-03-27T08:15:25.357Z,5.51
2019-03-27T08:18:34.235Z,5.80
2019-03-27T08:21:04.020Z,6.08
2019-03-27T08:23:33.751Z,6.09
2019-03-27T08:28:38.432Z,6.26
2019-03-27T08:31:08.209Z,6.15
2019-03-27T08:33:38.364Z,6.18
2019-03-27T08:36:08.186Z,6.15
2019-03-27T08:38:37.914Z,6.23
2019-03-27T08:41:08.006Z,6.31
2019-03-27T08:43:37.746Z,6.44
2019-03-27T08:46:07.532Z,6.64
2019-03-27T08:48:39.154Z,6.82
2019-03-27T08:51:08.820Z,6.74
2019-03-27T08:56:51.101Z,6.96
2019-03-27T08:59:20.905Z,7.12
2019-03-27T09:02:13.203Z,7.30
2019-03-27T09:04:43.082Z,7.36
2019-03-27T09:07:12.991Z,7.52
2019-03-27T09:09:42.820Z,7.52
2019-03-27T09:12:32.408Z,7.46
2019-03-27T09:15:02.192Z,7.60
2019-03-27T09:18:02.095Z,7.70
2019-03-27T09:20:31.896Z,7.68
2019-03-27T09:23:01.733Z,7.81
2019-03-27T09:25:31.614Z,7.78
2019-03-27T09:28:01.767Z,7.83
2019-03-27T09:33:45.545Z,7.88
2019-03-27T09:36:15.594Z,8.15
2019-03-27T09:38:45.602Z,8.45
2019-03-27T09:41:16.050Z,8.86
2019-03-27T09:43:46.212Z,9.14
2019-03-27T09:46:16.023Z,9.11
2019-03-27T09:48:45.824Z,8.94
2019-03-27T09:51:15.600Z,8.89
2019-03-27T09:53:45.413Z,8.86
2019-03-27T09:56:19.241Z,9.03
2019-03-27T09:58:46.878Z,9.22
2019-03-27T10:01:16.624Z,9.20
2019-03-27T10:03:46.704Z,8.90
2019-03-27T10:06:16.479Z,8.67
2019-03-27T10:08:46.298Z,8.44
2019-03-27T10:11:16.124Z,8.36
2019-03-27T10:13:45.933Z,8.38
2019-03-27T10:16:18.024Z,8.47
2019-03-27T10:18:47.866Z,8.64
2019-03-27T10:21:20.042Z,8.75
2019-03-27T10:23:49.838Z,8.69
2019-03-27T10:26:38.425Z,8.69
2019-03-27T10:29:08.381Z,8.48
2019-03-27T10:31:59.251Z,8.58
2019-03-27T10:34:29.163Z,8.70
2019-03-27T10:36:58.949Z,8.80
2019-03-27T10:39:28.797Z,8.93
2019-03-27T10:41:58.682Z,8.91
2019-03-27T10:44:28.541Z,8.88
2019-03-27T10:46:58.410Z,8.92
2019-03-27T10:49:28.130Z,9.01
2019-03-27T10:51:58.242Z,9.03
2019-03-27T10:54:27.984Z,9.11
2019-03-27T10:56:57.825Z,9.08
2019-03-27T10:59:27.558Z,9.16
2019-03-27T11:01:57.451Z,9.19
2019-03-27T11:07:17.702Z,9.32
2019-03-27T11:09:47.465Z,9.30
2019-03-27T11:12:17.318Z,9.20
2019-03-27T11:14:47.449Z,9.04
2019-03-27T11:17:17.331Z,9.00
2019-03-27T11:19:47.229Z,9.10
2019-03-27T11:22:17.014Z,9.17
2019-03-27T11:24:46.768Z,9.14
2019-03-27T11:27:16.586Z,9.17
2019-03-27T11:29:46.326Z,9.22
2019-03-27T11:32:16.542Z,9.25
2019-03-27T11:34:46.433Z,9.06
2019-03-27T11:37:16.361Z,8.98
2019-03-27T11:39:46.109Z,8.97
2019-03-27T11:42:16.299Z,9.09
2019-03-27T11:44:46.182Z,9.05
2019-03-27T11:50:05.472Z,9.30
2019-03-27T11:52:35.258Z,9.55
2019-03-27T11:55:05.401Z,9.65
2019-03-27T11:57:35.213Z,9.78
2019-03-27T12:03:14.773Z,9.82
2019-03-27T12:05:45.793Z,9.59
2019-03-27T12:08:16.187Z,9.35
2019-03-27T12:10:45.927Z,9.37
2019-03-27T12:13:16.306Z,9.49
2019-03-27T12:15:46.204Z,9.57
2019-03-27T12:18:55.658Z,9.65
2019-03-27T12:21:25.416Z,9.60
2019-03-27T12:23:55.293Z,9.30
2019-03-27T12:26:25.902Z,9.21
2019-03-27T12:31:32.537Z,9.26
2019-03-27T12:34:02.713Z,9.29
2019-03-27T12:36:32.549Z,9.31
2019-03-27T12:39:04.621Z,9.37
2019-03-27T12:41:34.355Z,9.48
2019-03-27T12:44:04.156Z,9.64
2019-03-27T12:46:33.909Z,9.70
2019-03-27T12:49:03.715Z,9.80
2019-03-27T12:51:33.463Z,9.93
2019-03-27T12:54:03.269Z,9.98
2019-03-27T12:56:33.486Z,9.97
2019-03-27T12:59:03.812Z,9.92
2019-03-27T13:01:34.333Z,9.87
2019-03-27T13:04:04.877Z,9.88
2019-03-27T13:06:35.098Z,9.90
2019-03-27T13:09:43.952Z,9.98
2019-03-27T13:14:50.532Z,10.26
2019-03-27T13:17:20.863Z,10.37
2019-03-27T13:19:50.609Z,10.35
2019-03-27T13:22:20.520Z,10.44
2019-03-27T13:24:50.678Z,10.52
2019-03-27T13:27:20.586Z,10.57
2019-03-27T13:29:51.118Z,10.46
2019-03-27T13:32:20.968Z,10.27
2019-03-27T13:34:50.759Z,10.25
2019-03-27T13:37:20.589Z,10.45
2019-03-27T13:39:50.328Z,10.62
2019-03-27T13:42:20.141Z,10.66
2019-03-27T13:44:49.883Z,10.79
2019-03-27T13:47:19.695Z,10.90
2019-03-27T13:49:49.544Z,10.87
2019-03-27T13:52:19.719Z,10.82
2019-03-27T13:54:49.849Z,10.57
2019-03-27T13:57:19.670Z,10.37
2019-03-27T13:59:49.812Z,10.25
2019-03-27T14:02:19.626Z,10.05
2019-03-27T14:04:49.371Z,9.92
2019-03-27T14:07:19.212Z,9.92
2019-03-27T14:09:48.993Z,10.02
2019-03-27T14:12:18.819Z,10.12
2019-03-27T14:14:50.557Z,10.18
2019-03-27T14:17:20.116Z,10.21
2019-03-27T14:19:50.216Z,10.31
2019-03-27T14:22:20.022Z,10.31
2019-03-27T14:24:50.146Z,10.27
2019-03-27T14:27:19.957Z,10.13
2019-03-27T14:29:49.700Z,10.04
2019-03-27T14:32:19.518Z,10.01
2019-03-27T14:34:49.336Z,10.04
2019-03-27T14:37:19.183Z,10.08
2019-03-27T14:39:48.910Z,10.17
2019-03-27T14:42:18.748Z,10.16
2019-03-27T14:44:48.843Z,10.18
2019-03-27T14:47:18.600Z,10.19
2019-03-27T14:49:48.408Z,10.24
2019-03-27T14:52:18.259Z,10.22
2019-03-27T14:54:48.061Z,10.10
2019-03-27T14:57:18.118Z,10.02
2019-03-27T14:59:47.896Z,9.98
2019-03-27T15:02:17.686Z,9.99
2019-03-27T15:04:47.479Z,9.94
2019-03-27T15:07:17.226Z,9.98
2019-03-27T15:09:47.117Z,9.97
2019-03-27T15:12:16.882Z,9.90
2019-03-27T15:14:46.683Z,9.87
2019-03-27T15:17:16.496Z,9.89
2019-03-27T15:19:46.626Z,10.01
2019-03-27T15:22:22.250Z,10.09
2019-03-27T15:24:48.119Z,10.19
2019-03-27T15:27:17.919Z,10.16
2019-03-27T15:29:48.026Z,10.15
2019-03-27T15:32:17.764Z,10.17
2019-03-27T15:34:47.615Z,10.21
2019-03-27T15:37:17.911Z,10.15
2019-03-27T15:39:47.737Z,10.11
2019-03-27T15:42:17.843Z,10.05
2019-03-27T15:44:49.755Z,9.99
2019-03-27T15:47:19.187Z,9.97
2019-03-27T15:49:48.958Z,9.96
2019-03-27T15:52:19.157Z,10.06
2019-03-27T15:54:49.349Z,10.05
2019-03-27T15:57:19.235Z,10.09
2019-03-27T15:59:48.993Z,10.15
2019-03-27T16:02:18.796Z,10.15
2019-03-27T16:04:48.548Z,10.06
2019-03-27T16:07:18.372Z,10.09
2019-03-27T16:09:48.123Z,10.10
2019-03-27T16:12:17.950Z,10.09
2019-03-27T16:14:47.711Z,10.03
2019-03-27T16:17:17.584Z,10.08
2019-03-27T16:19:47.491Z,10.08
2019-03-27T16:22:17.652Z,10.12
2019-03-27T16:24:47.403Z,10.13
2019-03-27T16:27:17.244Z,10.17
2019-03-27T16:29:47.057Z,10.18
2019-03-27T16:32:16.960Z,10.19
2019-03-27T16:34:46.918Z,10.19
2019-03-27T16:37:16.808Z,10.25
2019-03-27T16:39:46.595Z,10.24
2019-03-27T16:42:16.432Z,10.22
2019-03-27T16:44:46.203Z,10.20
2019-03-27T16:47:16.052Z,10.17
2019-03-27T16:49:45.833Z,10.12
2019-03-27T16:52:15.686Z,10.10
2019-03-27T16:54:45.442Z,10.14
2019-03-27T16:57:15.177Z,10.14
2019-03-27T16:59:45.550Z,10.15
2019-03-27T17:02:15.333Z,10.20
2019-03-27T17:04:45.188Z,10.21
2019-03-27T17:07:14.961Z,10.21
2019-03-27T17:09:44.897Z,10.14
2019-03-27T17:12:15.025Z,10.11
2019-03-27T17:14:44.836Z,10.08
2019-03-27T17:17:15.216Z,10.00
2019-03-27T17:19:45.192Z,9.98
2019-03-27T17:22:19.660Z,9.96
2019-03-27T17:24:47.193Z,9.96
2019-03-27T17:27:17.011Z,9.97
2019-03-27T17:29:46.850Z,9.95
2019-03-27T17:32:16.565Z,9.91
2019-03-27T17:34:57.587Z,9.91
2019-03-27T17:37:27.485Z,9.93
2019-03-27T17:39:57.294Z,9.96
2019-03-27T17:42:27.029Z,9.92
2019-03-27T17:44:57.139Z,9.98
2019-03-27T17:47:26.882Z,9.94
2019-03-27T17:49:56.687Z,9.91
2019-03-27T17:52:26.770Z,9.93
2019-03-27T17:54:56.632Z,9.84
2019-03-27T17:57:26.711Z,9.75
2019-03-27T17:59:56.631Z,9.71
2019-03-27T18:02:26.393Z,9.70
2019-03-27T18:04:56.195Z,9.70
2019-03-27T18:07:26.255Z,9.73
2019-03-27T18:09:56.062Z,9.74
2019-03-27T18:12:25.780Z,9.71
2019-03-27T18:14:55.618Z,9.69
2019-03-27T18:17:25.907Z,9.65
2019-03-27T18:19:55.716Z,9.73
2019-03-27T18:22:25.843Z,9.79
2019-03-27T18:24:55.648Z,9.76
2019-03-27T18:27:25.911Z,9.69
2019-03-27T18:29:55.763Z,9.69
2019-03-27T18:32:25.519Z,9.72
2019-03-27T18:34:55.833Z,9.72
2019-03-27T18:37:25.580Z,9.80
2019-03-27T18:39:55.402Z,9.75
2019-03-27T18:42:25.121Z,9.77
2019-03-27T18:44:54.930Z,9.78
2019-03-27T18:47:25.117Z,9.79
2019-03-27T18:49:55.229Z,9.81
2019-03-27T18:52:24.961Z,9.85
2019-03-27T18:54:54.787Z,9.92
2019-03-27T18:57:24.616Z,9.90
2019-03-27T18:59:54.757Z,9.89
2019-03-27T19:02:24.520Z,9.91
2019-03-27T19:04:54.379Z,9.89
2019-03-27T19:07:24.108Z,9.85
2019-03-27T19:09:53.871Z,9.84
2019-03-27T19:12:26.875Z,9.85
2019-03-27T19:14:55.474Z,9.85
2019-03-27T19:17:25.293Z,9.84
2019-03-27T19:19:55.022Z,9.85
2019-03-27T19:22:24.830Z,9.84
2019-03-27T19:24:54.566Z,9.79
2019-03-27T19:27:24.737Z,9.75
2019-03-27T19:29:54.475Z,9.74
2019-03-27T19:32:24.666Z,9.68
2019-03-27T19:34:54.724Z,9.64
2019-03-27T19:37:25.018Z,9.56
2019-03-27T19:39:54.763Z,9.53
2019-03-27T19:42:24.649Z,9.58
2019-03-27T19:44:54.418Z,9.62
2019-03-27T19:47:24.234Z,9.71
2019-03-27T19:49:54.002Z,9.71
2019-03-27T19:52:23.892Z,9.67
2019-03-27T19:54:53.656Z,9.69
2019-03-27T19:57:23.469Z,9.69
2019-03-27T19:59:53.253Z,9.69
2019-03-27T20:02:23.183Z,9.68
2019-03-27T20:04:52.931Z,9.66
2019-03-27T20:07:35.168Z,9.68
2019-03-27T20:09:54.824Z,9.67
2019-03-27T20:12:24.651Z,9.65
2019-03-27T20:14:54.400Z,9.58
2019-03-27T20:17:24.620Z,9.58
2019-03-27T20:19:54.419Z,9.53
2019-03-27T20:22:24.357Z,9.55
2019-03-27T20:24:54.193Z,9.57
2019-03-27T20:27:24.025Z,9.67
2019-03-27T20:29:53.796Z,9.75
2019-03-27T20:32:23.671Z,9.75
2019-03-27T20:34:53.441Z,9.73
2019-03-27T20:37:23.671Z,9.70
2019-03-27T20:39:53.551Z,9.72
2019-03-27T20:42:23.366Z,9.74
2019-03-27T20:44:53.128Z,9.70
2019-03-27T20:47:23.275Z,9.69
2019-03-27T20:49:53.028Z,9.66
2019-03-27T20:52:22.866Z,9.64
2019-03-27T20:54:55.320Z,9.60
2019-03-27T20:57:24.189Z,9.65
2019-03-27T20:59:53.936Z,9.65
2019-03-27T21:02:23.794Z,9.62
2019-03-27T21:04:53.528Z,9.62
2019-03-27T21:07:24.687Z,9.57
2019-03-27T21:09:55.216Z,9.59
2019-03-27T21:12:25.520Z,9.55
2019-03-27T21:14:55.305Z,9.57
2019-03-27T21:17:25.137Z,9.55
2019-03-27T21:19:54.870Z,9.50
2019-03-27T21:22:24.704Z,9.48
2019-03-27T21:25:07.924Z,9.54
2019-03-27T21:27:27.353Z,9.54
2019-03-27T21:29:57.112Z,9.60
2019-03-27T21:32:26.977Z,9.59
2019-03-27T21:34:56.729Z,9.63
2019-03-27T21:37:26.623Z,9.61
2019-03-27T21:39:56.389Z,9.57
2019-03-27T21:42:26.206Z,9.54
2019-03-27T21:44:56.128Z,9.50
2019-03-27T21:47:44.857Z,9.46
2019-03-27T21:50:53.716Z,9.49
2019-03-27T21:53:23.534Z,9.52
2019-03-27T21:56:12.297Z,9.50
2019-03-27T21:59:21.269Z,9.53
2019-03-27T22:01:52.114Z,9.50
2019-03-27T22:04:22.060Z,9.53
2019-03-27T22:06:51.829Z,9.53
2019-03-27T22:09:21.748Z,9.52
2019-03-27T22:11:51.502Z,9.52
2019-03-27T22:14:21.368Z,9.54
2019-03-27T22:16:53.308Z,9.54
2019-03-27T22:19:23.550Z,9.50
2019-03-27T22:21:53.330Z,9.51
2019-03-27T22:24:23.181Z,9.53
2019-03-27T22:26:52.930Z,9.49
2019-03-27T22:29:23.094Z,9.52
2019-03-27T22:31:52.906Z,9.50
2019-03-27T22:34:22.718Z,9.51
2019-03-27T22:36:52.548Z,9.50
2019-03-27T22:41:57.600Z,9.53
2019-03-27T22:44:27.419Z,9.55
2019-03-27T22:46:57.568Z,9.57
2019-03-27T22:49:27.397Z,9.53
2019-03-27T22:51:57.139Z,9.54
2019-03-27T22:54:26.957Z,9.53
2019-03-27T22:56:57.126Z,9.53
2019-03-27T22:59:27.289Z,9.51
2019-03-27T23:01:57.160Z,9.50
2019-03-27T23:04:26.958Z,9.50
2019-03-27T23:06:56.772Z,9.46
2019-03-27T23:09:26.607Z,9.47
2019-03-27T23:11:56.568Z,9.49
2019-03-27T23:14:26.374Z,9.46
2019-03-27T23:16:56.097Z,9.40
2019-03-27T23:19:25.895Z,9.43
2019-03-27T23:21:55.750Z,9.41
2019-03-27T23:24:25.635Z,9.40
2019-03-27T23:26:55.473Z,9.30
2019-03-27T23:29:25.302Z,9.25
2019-03-27T23:31:55.021Z,9.31
2019-03-27T23:34:24.893Z,9.36
2019-03-27T23:36:54.709Z,9.35
2019-03-27T23:39:24.535Z,9.42
2019-03-27T23:41:54.400Z,9.37
2019-03-27T23:44:24.209Z,9.30
2019-03-27T23:46:53.942Z,9.24
2019-03-27T23:49:23.746Z,9.26
2019-03-27T23:51:53.479Z,9.28
2019-03-27T23:54:23.284Z,9.32
2019-03-27T23:56:53.025Z,9.39
2019-03-27T23:59:22.829Z,9.26
